Alton, Texas
Current Conditions -  °F | °C
As of 8:53 AM on Thursday 30 Oct 2014 (Local Time) from KMFE Reporting Station
Haze Haze  
Wind Chill: 24°   Ceiling: Unl
Heat Index: 24°   Visibility: 6mi
Dew Point: 21°   Wind: 0mph
Humidity: 82%   Direction: NA
Pressure: 30.09"   Gusts: NA
Location:  26.2155°N, 98.325°W
Report Text: KMFE 301353Z 00000KT 6SM HZ CLR 24/21 A3009 RMK AO2 SLP187 T02390206
Loading
Personal Weather Stations






























Interactive Weather Map
Tropical Storm Tracking
New forecast layout! Learn more

10-Day Weather Forecast

Advertisements
Track Severe Weather on mobile